createdAt,value
2019-01-19T00:00:04.447Z,-3.20
2019-01-19T00:02:40.155Z,-3.30
2019-01-19T00:05:39.595Z,-3.50
2019-01-19T00:08:20.798Z,-3.50
2019-01-19T00:11:15.804Z,-3.60
2019-01-19T00:13:55.602Z,-3.70
2019-01-19T00:16:37.367Z,-4.00
2019-01-19T00:19:32.437Z,-4.00
2019-01-19T00:22:22.835Z,-4.20
2019-01-19T00:24:56.753Z,-4.10
2019-01-19T00:27:51.806Z,-4.20
2019-01-19T00:30:25.875Z,-3.80
2019-01-19T00:33:14.553Z,-3.80
2019-01-19T00:36:00.434Z,-3.90
2019-01-19T00:38:50.714Z,-4.20
2019-01-19T00:41:46.799Z,-4.00
2019-01-19T00:44:36.594Z,-4.10
2019-01-19T00:47:10.915Z,-4.00
2019-01-19T00:49:42.074Z,-3.80
2019-01-19T00:52:31.002Z,-3.70
2019-01-19T00:55:04.971Z,-3.80
2019-01-19T00:57:49.155Z,-3.80
2019-01-19T01:00:21.927Z,-3.90
2019-01-19T01:03:09.562Z,-3.70
2019-01-19T01:05:42.365Z,-3.70
2019-01-19T01:08:43.274Z,-3.70
2019-01-19T01:11:17.196Z,-3.70
2019-01-19T01:14:09.713Z,-3.70
2019-01-19T01:16:57.485Z,-3.70
2019-01-19T01:19:37.242Z,-3.60
2019-01-19T01:22:14.117Z,-3.60
2019-01-19T01:25:03.048Z,-3.70
2019-01-19T01:27:48.038Z,-3.60
2019-01-19T01:30:29.524Z,-3.60
2019-01-19T01:33:11.718Z,-3.60
2019-01-19T01:35:48.438Z,-3.70
2019-01-19T01:38:42.079Z,-3.60
2019-01-19T01:41:29.686Z,-3.70
2019-01-19T01:44:27.325Z,-3.70
2019-01-19T01:47:19.159Z,-3.70
2019-01-19T01:49:55.842Z,-3.80
2019-01-19T01:52:46.318Z,-3.80
2019-01-19T01:55:20.241Z,-3.90
2019-01-19T01:57:55.154Z,-3.90
2019-01-19T02:00:37.646Z,-3.90
2019-01-19T02:03:44.158Z,-4.00
2019-01-19T02:06:24.554Z,-3.90
2019-01-19T02:09:15.958Z,-3.90
2019-01-19T02:12:08.920Z,-3.90
2019-01-19T02:14:48.445Z,-3.90
2019-01-19T02:17:38.723Z,-4.00
2019-01-19T02:20:28.714Z,-4.00
2019-01-19T02:23:07.564Z,-4.00
2019-01-19T02:25:57.750Z,-4.00
2019-01-19T02:28:54.353Z,-4.00
2019-01-19T02:31:34.249Z,-4.00
2019-01-19T02:34:12.436Z,-4.00
2019-01-19T02:36:55.160Z,-4.10
2019-01-19T02:39:45.558Z,-4.10
2019-01-19T02:42:28.602Z,-4.10
2019-01-19T02:45:11.485Z,-4.10
2019-01-19T02:47:48.435Z,-4.10
2019-01-19T02:50:24.127Z,-4.10
2019-01-19T02:53:19.039Z,-4.30
2019-01-19T02:55:55.278Z,-4.50
2019-01-19T02:58:40.554Z,-4.60
2019-01-19T03:01:32.846Z,-5.00
2019-01-19T03:04:20.606Z,-4.90
2019-01-19T03:07:00.526Z,-4.80
2019-01-19T03:09:52.406Z,-4.70
2019-01-19T03:12:53.283Z,-4.70
2019-01-19T03:15:32.798Z,-4.50
2019-01-19T03:18:21.807Z,-4.30
2019-01-19T03:21:07.486Z,-4.50
2019-01-19T03:23:49.007Z,-4.30
2019-01-19T03:26:28.518Z,-4.40
2019-01-19T03:29:05.079Z,-4.40
2019-01-19T03:31:46.616Z,-4.60
2019-01-19T03:34:38.038Z,-4.60
2019-01-19T03:37:16.358Z,-4.40
2019-01-19T03:39:53.886Z,-4.40
2019-01-19T03:42:29.518Z,-4.40
2019-01-19T03:45:28.806Z,-4.30
2019-01-19T03:48:05.398Z,-4.30
2019-01-19T03:50:45.246Z,-4.30
2019-01-19T03:53:30.406Z,-4.20
2019-01-19T03:56:22.162Z,-4.20
2019-01-19T03:59:04.558Z,-4.20
2019-01-19T04:01:44.008Z,-4.30
2019-01-19T04:04:26.811Z,-4.20
2019-01-19T04:07:03.645Z,-4.30
2019-01-19T04:09:42.319Z,-4.20
2019-01-19T04:12:31.167Z,-4.20
2019-01-19T04:15:10.478Z,-4.20
2019-01-19T04:17:50.045Z,-4.30
2019-01-19T04:20:40.318Z,-4.20
2019-01-19T04:23:10.046Z,-4.30
2019-01-19T04:25:44.449Z,-4.30
2019-01-19T04:28:16.526Z,-4.30
2019-01-19T04:30:49.541Z,-4.40
2019-01-19T04:33:21.000Z,-4.40
2019-01-19T04:35:51.729Z,-4.50
2019-01-19T04:38:21.486Z,-4.80
2019-01-19T04:40:51.247Z,-4.50
2019-01-19T04:43:22.038Z,-4.70
2019-01-19T04:45:51.769Z,-5.00
2019-01-19T04:48:24.158Z,-4.90
2019-01-19T04:50:56.439Z,-4.70
2019-01-19T04:53:27.206Z,-4.70
2019-01-19T04:55:57.980Z,-4.60
2019-01-19T04:58:28.800Z,-4.60
2019-01-19T05:00:58.478Z,-4.60
2019-01-19T05:03:29.247Z,-4.50
2019-01-19T05:06:00.038Z,-4.40
2019-01-19T05:08:30.847Z,-4.30
2019-01-19T05:11:01.682Z,-4.40
2019-01-19T05:13:32.410Z,-4.40
2019-01-19T05:16:03.204Z,-4.40
2019-01-19T05:18:34.566Z,-4.40
2019-01-19T05:21:07.558Z,-4.40
2019-01-19T05:23:38.560Z,-4.30
2019-01-19T05:26:08.850Z,-4.30
2019-01-19T05:28:39.679Z,-4.20
2019-01-19T05:31:10.486Z,-4.20
2019-01-19T05:33:40.238Z,-4.20
2019-01-19T05:36:10.998Z,-4.30
2019-01-19T05:38:41.704Z,-4.30
2019-01-19T05:41:12.560Z,-4.50
2019-01-19T05:43:43.322Z,-4.50
2019-01-19T05:46:21.217Z,-4.50
2019-01-19T05:48:45.447Z,-4.60
2019-01-19T05:51:15.203Z,-4.60
2019-01-19T05:53:45.918Z,-4.60
2019-01-19T05:56:16.606Z,-4.70
2019-01-19T05:58:47.357Z,-4.60
2019-01-19T06:01:18.199Z,-4.40
2019-01-19T06:03:47.959Z,-4.50
2019-01-19T06:06:18.998Z,-4.40
2019-01-19T06:08:49.806Z,-4.40
2019-01-19T06:11:20.726Z,-4.40
2019-01-19T06:13:50.446Z,-4.50
2019-01-19T06:16:21.318Z,-4.60
2019-01-19T06:18:52.598Z,-4.50
2019-01-19T06:21:23.598Z,-4.50
2019-01-19T06:23:53.359Z,-4.60
2019-01-19T06:26:24.129Z,-4.60
2019-01-19T06:28:53.842Z,-4.50
2019-01-19T06:31:24.607Z,-4.50
2019-01-19T06:33:56.006Z,-4.50
2019-01-19T06:36:26.795Z,-4.60
2019-01-19T06:38:57.606Z,-4.60
2019-01-19T06:41:27.399Z,-4.60
2019-01-19T06:43:59.678Z,-4.50
2019-01-19T06:46:30.527Z,-4.60
2019-01-19T06:49:01.278Z,-4.60
2019-01-19T06:51:32.115Z,-4.50
2019-01-19T06:54:02.079Z,-4.50
2019-01-19T06:56:31.714Z,-4.40
2019-01-19T06:59:02.507Z,-4.30
2019-01-19T07:01:32.318Z,-4.40
2019-01-19T07:04:04.484Z,-4.40
2019-01-19T07:06:35.314Z,-4.40
2019-01-19T07:09:09.238Z,-4.30
2019-01-19T07:11:39.874Z,-4.30
2019-01-19T07:14:10.602Z,-4.20
2019-01-19T07:16:41.379Z,-4.10
2019-01-19T07:19:11.209Z,-4.10
2019-01-19T07:21:42.081Z,-4.10
2019-01-19T07:24:12.880Z,-4.10
2019-01-19T07:26:42.564Z,-3.90
2019-01-19T07:29:16.318Z,-3.90
2019-01-19T07:31:47.126Z,-3.80
2019-01-19T07:34:17.883Z,-3.80
2019-01-19T07:36:48.748Z,-3.70
2019-01-19T07:39:18.518Z,-3.70
2019-01-19T07:41:49.245Z,-3.60
2019-01-19T07:44:20.086Z,-3.50
2019-01-19T07:46:55.960Z,-3.50
2019-01-19T07:49:25.763Z,-3.40
2019-01-19T07:51:56.566Z,-3.30
2019-01-19T07:54:27.338Z,-3.30
2019-01-19T07:56:58.179Z,-3.20
2019-01-19T07:59:29.045Z,-3.10
2019-01-19T08:01:59.807Z,-3.10
2019-01-19T08:04:30.567Z,-2.90
2019-01-19T08:07:01.255Z,-2.90
2019-01-19T08:09:32.854Z,-2.70
2019-01-19T08:12:02.715Z,-2.60
2019-01-19T08:14:33.480Z,-2.50
2019-01-19T08:17:03.207Z,-2.50
2019-01-19T08:19:34.011Z,-2.40
2019-01-19T08:22:07.001Z,-2.30
2019-01-19T08:24:38.118Z,-2.20
2019-01-19T08:27:08.926Z,-2.10
2019-01-19T08:29:38.683Z,-2.00
2019-01-19T08:32:09.446Z,-2.10
2019-01-19T08:34:40.807Z,-2.00
2019-01-19T08:37:11.562Z,-1.90
2019-01-19T08:39:41.320Z,-1.80
2019-01-19T08:42:14.440Z,-1.70
2019-01-19T08:44:47.335Z,-1.60
2019-01-19T08:47:19.210Z,-1.40
2019-01-19T08:49:48.995Z,-1.10
2019-01-19T08:52:19.794Z,-1.10
2019-01-19T08:54:50.601Z,-1.20
2019-01-19T08:57:20.476Z,-1.10
2019-01-19T08:59:51.322Z,-1.10
2019-01-19T09:02:26.684Z,-1.10
2019-01-19T09:04:55.764Z,-1.10
2019-01-19T09:07:33.857Z,-0.90
2019-01-19T09:10:03.802Z,-0.90
2019-01-19T09:12:34.727Z,-1.00
2019-01-19T09:15:05.440Z,-0.90
2019-01-19T09:17:36.282Z,-0.80
2019-01-19T09:20:09.350Z,-0.70
2019-01-19T09:22:39.169Z,-0.80
2019-01-19T09:25:15.890Z,-0.80
2019-01-19T09:27:46.767Z,-0.60
2019-01-19T09:30:22.686Z,-0.60
2019-01-19T09:32:53.643Z,-0.60
2019-01-19T09:35:24.974Z,-0.50
2019-01-19T09:37:55.798Z,-0.60
2019-01-19T09:40:26.642Z,-0.50
2019-01-19T09:42:56.323Z,-0.40
2019-01-19T09:45:27.778Z,-0.50
2019-01-19T09:47:58.642Z,-0.50
2019-01-19T09:50:29.398Z,-0.50
2019-01-19T09:52:59.607Z,-0.40
2019-01-19T09:55:30.363Z,-0.40
2019-01-19T09:58:01.729Z,-0.30
2019-01-19T10:00:37.603Z,-0.30
2019-01-19T10:03:05.438Z,-0.30
2019-01-19T10:05:35.237Z,-0.30
2019-01-19T10:08:06.007Z,-0.20
2019-01-19T10:10:36.768Z,-0.20
2019-01-19T10:13:07.568Z,0.00
2019-01-19T10:15:37.358Z,0.20
2019-01-19T10:18:10.198Z,0.30
2019-01-19T10:20:40.007Z,0.20
2019-01-19T10:23:09.883Z,0.00
2019-01-19T10:25:40.734Z,0.00
2019-01-19T10:28:11.483Z,0.10
2019-01-19T10:30:42.273Z,0.20
2019-01-19T10:33:13.064Z,0.20
2019-01-19T10:35:43.927Z,0.20
2019-01-19T10:38:14.798Z,0.30
2019-01-19T10:40:46.078Z,0.30
2019-01-19T10:43:16.526Z,0.30
2019-01-19T10:45:47.319Z,0.40
2019-01-19T10:48:17.047Z,0.40
2019-01-19T10:50:47.835Z,0.50
2019-01-19T10:53:18.643Z,0.60
2019-01-19T10:55:49.518Z,0.60
2019-01-19T10:58:20.286Z,0.80
2019-01-19T11:00:51.079Z,0.80
2019-01-19T11:03:21.923Z,0.40
2019-01-19T11:05:52.764Z,0.30
2019-01-19T11:08:24.116Z,0.30
2019-01-19T11:10:55.054Z,0.30
2019-01-19T11:13:29.000Z,0.60
2019-01-19T11:15:59.746Z,0.50
2019-01-19T11:18:30.565Z,0.50
2019-01-19T11:21:01.415Z,0.60
2019-01-19T11:23:39.535Z,0.60
2019-01-19T11:26:03.802Z,0.50
2019-01-19T11:28:35.314Z,0.50
2019-01-19T11:31:05.806Z,0.50
2019-01-19T11:33:37.113Z,0.80
2019-01-19T11:36:07.955Z,0.80
2019-01-19T11:38:37.726Z,0.90
2019-01-19T11:41:08.492Z,1.00
2019-01-19T11:43:41.313Z,1.10
2019-01-19T11:46:12.131Z,1.00
2019-01-19T11:48:43.642Z,1.20
2019-01-19T11:51:14.120Z,1.40
2019-01-19T11:53:44.885Z,1.50
2019-01-19T11:56:16.326Z,1.50
2019-01-19T11:58:47.691Z,1.50
2019-01-19T12:01:18.518Z,1.50
2019-01-19T12:03:51.958Z,1.50
2019-01-19T12:06:22.742Z,1.70
2019-01-19T12:08:52.438Z,1.60
2019-01-19T12:11:23.238Z,1.60
2019-01-19T12:13:54.526Z,1.70
2019-01-19T12:16:24.206Z,1.70
2019-01-19T12:18:57.412Z,1.80
2019-01-19T12:21:27.875Z,1.70
2019-01-19T12:23:58.702Z,1.50
2019-01-19T12:26:29.612Z,1.90
2019-01-19T12:29:02.892Z,1.80
2019-01-19T12:31:31.969Z,2.00
2019-01-19T12:34:03.209Z,1.90
2019-01-19T12:36:33.996Z,2.00
2019-01-19T12:39:05.082Z,1.70
2019-01-19T12:41:35.829Z,1.50
2019-01-19T12:44:06.046Z,1.20
2019-01-19T12:46:38.378Z,1.10
2019-01-19T12:49:09.242Z,1.10
2019-01-19T12:51:38.975Z,1.30
2019-01-19T12:54:11.689Z,1.40
2019-01-19T12:56:42.195Z,1.40
2019-01-19T12:59:12.963Z,1.40
2019-01-19T13:01:42.713Z,1.40
2019-01-19T13:04:12.525Z,1.40
2019-01-19T13:06:43.562Z,1.30
2019-01-19T13:09:16.918Z,1.30
2019-01-19T13:11:59.514Z,1.30
2019-01-19T13:14:30.557Z,1.20
2019-01-19T13:17:19.514Z,0.90
2019-01-19T13:19:57.715Z,0.90
2019-01-19T13:22:59.234Z,0.90
2019-01-19T13:25:49.953Z,0.80
2019-01-19T13:28:42.668Z,0.70
2019-01-19T13:31:37.723Z,0.60
2019-01-19T13:34:36.676Z,0.50
2019-01-19T13:37:44.956Z,0.60
2019-01-19T13:40:34.127Z,0.70
2019-01-19T13:43:27.274Z,0.70
2019-01-19T13:46:01.207Z,0.80
2019-01-19T13:48:40.919Z,0.60
2019-01-19T13:51:23.527Z,0.40
2019-01-19T13:54:18.755Z,0.40
2019-01-19T13:56:55.401Z,0.40
2019-01-19T13:59:38.092Z,0.40
2019-01-19T14:02:19.451Z,0.30
2019-01-19T14:05:29.353Z,0.20
2019-01-19T14:08:18.594Z,0.00
2019-01-19T14:11:10.363Z,-0.20
2019-01-19T14:14:12.594Z,-0.20
2019-01-19T14:17:02.683Z,-0.30
2019-01-19T14:19:39.322Z,-0.40
2019-01-19T14:22:32.477Z,-0.80
2019-01-19T14:25:35.906Z,-1.20
2019-01-19T14:28:21.448Z,-1.60
2019-01-19T14:31:29.975Z,-1.60
2019-01-19T14:34:08.274Z,-1.70
2019-01-19T14:36:51.234Z,-1.60
2019-01-19T14:39:49.154Z,-1.70
2019-01-19T14:42:53.554Z,-1.70
2019-01-19T14:45:49.379Z,-1.70
2019-01-19T14:48:29.117Z,-1.80
2019-01-19T14:51:07.555Z,-1.80
2019-01-19T14:53:43.477Z,-1.90
2019-01-19T14:57:06.355Z,-1.90
2019-01-19T14:59:51.088Z,-1.90
2019-01-19T15:02:40.640Z,-2.00
2019-01-19T15:05:16.998Z,-2.10
2019-01-19T15:07:58.353Z,-2.10
2019-01-19T15:10:43.138Z,-2.20
2019-01-19T15:13:28.478Z,-2.10
2019-01-19T15:16:03.034Z,-2.10
2019-01-19T15:18:39.127Z,-2.10
2019-01-19T15:21:21.525Z,-2.10
2019-01-19T15:24:04.276Z,-2.10
2019-01-19T15:26:42.354Z,-2.10
2019-01-19T15:29:46.378Z,-2.20
2019-01-19T15:32:35.287Z,-2.20
2019-01-19T15:35:24.115Z,-2.30
2019-01-19T15:38:16.036Z,-2.20
2019-01-19T15:41:16.926Z,-2.10
2019-01-19T15:44:07.327Z,-2.00
2019-01-19T15:46:59.635Z,-2.00
2019-01-19T15:49:52.768Z,-2.30
2019-01-19T15:52:38.683Z,-2.30
2019-01-19T15:55:18.366Z,-2.30
2019-01-19T15:57:55.159Z,-2.10
2019-01-19T16:00:58.317Z,-2.00
2019-01-19T16:03:44.202Z,-1.90
2019-01-19T16:06:41.478Z,-2.00
2019-01-19T16:09:23.162Z,-2.00
2019-01-19T16:11:58.881Z,-2.00
2019-01-19T16:14:41.207Z,-2.10
2019-01-19T16:17:17.715Z,-2.00
2019-01-19T16:19:56.844Z,-1.90
2019-01-19T16:22:36.639Z,-1.90
2019-01-19T16:25:22.479Z,-2.00
2019-01-19T16:28:08.355Z,-2.10
2019-01-19T16:30:57.240Z,-2.20
2019-01-19T16:33:39.925Z,-2.10
2019-01-19T16:36:17.039Z,-2.00
2019-01-19T16:39:08.527Z,-2.00
2019-01-19T16:42:03.403Z,-2.10
2019-01-19T16:44:54.194Z,-2.10
2019-01-19T16:47:32.439Z,-2.10
2019-01-19T16:50:17.476Z,-2.10
2019-01-19T16:52:57.139Z,-2.10
2019-01-19T16:55:37.036Z,-2.10
2019-01-19T16:58:16.879Z,-2.10
2019-01-19T17:01:19.355Z,-2.90
2019-01-19T17:04:24.602Z,-3.10
2019-01-19T17:07:19.874Z,-3.30
2019-01-19T17:10:02.760Z,-3.30
2019-01-19T17:12:42.760Z,-3.30
2019-01-19T17:15:33.928Z,-3.30
2019-01-19T17:18:18.931Z,-3.20
2019-01-19T17:20:58.717Z,-3.00
2019-01-19T17:23:42.401Z,-2.90
2019-01-19T17:26:39.020Z,-3.00
2019-01-19T17:29:26.642Z,-3.00
2019-01-19T17:32:06.474Z,-3.00
2019-01-19T17:34:59.718Z,-3.00
2019-01-19T17:37:41.480Z,-3.00
2019-01-19T17:40:44.163Z,-3.00
2019-01-19T17:43:19.759Z,-3.00
2019-01-19T17:46:05.875Z,-3.10
2019-01-19T17:48:48.803Z,-3.10
2019-01-19T17:51:25.562Z,-3.10
2019-01-19T17:54:31.013Z,-3.20
2019-01-19T17:57:19.939Z,-3.20
2019-01-19T17:59:59.567Z,-3.10
2019-01-19T18:02:51.714Z,-3.10
2019-01-19T18:05:31.444Z,-3.10
2019-01-19T18:08:27.817Z,-3.10
2019-01-19T18:11:12.728Z,-3.10
2019-01-19T18:13:48.233Z,-3.20
2019-01-19T18:16:27.966Z,-3.20
2019-01-19T18:19:29.258Z,-3.10
2019-01-19T18:22:25.880Z,-3.10
2019-01-19T18:25:01.675Z,-3.00
2019-01-19T18:27:58.047Z,-3.00
2019-01-19T18:30:51.808Z,-3.00
2019-01-19T18:33:36.834Z,-3.00
2019-01-19T18:36:19.801Z,-3.10
2019-01-19T18:39:15.126Z,-3.30
2019-01-19T18:42:05.439Z,-3.30
2019-01-19T18:44:54.515Z,-3.20
2019-01-19T18:47:37.727Z,-3.10
2019-01-19T18:50:20.641Z,-3.00
2019-01-19T18:53:11.562Z,-3.00
2019-01-19T18:55:57.641Z,-3.10
2019-01-19T18:58:43.638Z,-3.20
2019-01-19T19:01:34.239Z,-3.20
2019-01-19T19:04:17.320Z,-3.30
2019-01-19T19:07:16.837Z,-3.40
2019-01-19T19:09:53.719Z,-3.60
2019-01-19T19:12:41.486Z,-3.70
2019-01-19T19:15:24.490Z,-3.90
2019-01-19T19:18:20.888Z,-4.00
2019-01-19T19:20:56.278Z,-3.90
2019-01-19T19:23:30.286Z,-3.80
2019-01-19T19:26:13.247Z,-4.00
2019-01-19T19:29:11.481Z,-4.10
2019-01-19T19:31:55.847Z,-4.20
2019-01-19T19:34:38.766Z,-4.60
2019-01-19T19:37:39.882Z,-4.70
2019-01-19T19:40:22.639Z,-4.70
2019-01-19T19:42:56.647Z,-4.50
2019-01-19T19:45:48.276Z,-4.30
2019-01-19T19:48:33.887Z,-4.20
2019-01-19T19:51:17.702Z,-4.00
2019-01-19T19:53:48.610Z,-3.90
2019-01-19T19:56:19.841Z,-3.90
2019-01-19T19:58:50.689Z,-3.80
2019-01-19T20:01:21.599Z,-4.00
2019-01-19T20:03:52.423Z,-4.20
2019-01-19T20:06:23.320Z,-4.20
2019-01-19T20:08:54.239Z,-4.20
2019-01-19T20:11:25.118Z,-4.20
2019-01-19T20:13:56.008Z,-4.50
2019-01-19T20:16:26.840Z,-5.00
2019-01-19T20:18:57.839Z,-4.80
2019-01-19T20:21:27.711Z,-4.40
2019-01-19T20:25:00.718Z,-4.50
2019-01-19T20:27:31.533Z,-4.60
2019-01-19T20:30:02.529Z,-4.50
2019-01-19T20:32:33.503Z,-4.30
2019-01-19T20:35:06.004Z,-4.10
2019-01-19T20:37:36.850Z,-4.10
2019-01-19T20:40:13.889Z,-4.40
2019-01-19T20:42:44.647Z,-4.70
2019-01-19T20:45:17.722Z,-4.90
2019-01-19T20:47:49.279Z,-4.80
2019-01-19T20:50:19.118Z,-4.70
2019-01-19T20:52:49.886Z,-4.70
2019-01-19T20:55:20.686Z,-4.80
2019-01-19T20:57:51.523Z,-4.90
2019-01-19T21:00:23.159Z,-4.90
2019-01-19T21:02:54.037Z,-5.00
2019-01-19T21:05:24.838Z,-4.90
2019-01-19T21:07:56.447Z,-4.90
2019-01-19T21:10:31.673Z,-4.80
2019-01-19T21:12:59.246Z,-5.00
2019-01-19T21:15:30.158Z,-5.10
2019-01-19T21:18:00.922Z,-5.00
2019-01-19T21:20:31.878Z,-5.10
2019-01-19T21:23:02.650Z,-4.90
2019-01-19T21:25:33.440Z,-5.00
2019-01-19T21:28:04.927Z,-4.90
2019-01-19T21:30:35.827Z,-4.90
2019-01-19T21:33:06.840Z,-5.00
2019-01-19T21:35:37.687Z,-5.00
2019-01-19T21:38:08.438Z,-5.00
2019-01-19T21:40:39.381Z,-4.90
2019-01-19T21:43:10.206Z,-5.00
2019-01-19T21:45:41.082Z,-5.00
2019-01-19T21:48:11.848Z,-5.00
2019-01-19T21:50:42.561Z,-5.10
2019-01-19T21:53:12.326Z,-5.20
2019-01-19T21:55:43.166Z,-5.30
2019-01-19T21:58:13.920Z,-5.30
2019-01-19T22:00:44.758Z,-5.30
2019-01-19T22:03:15.528Z,-5.30
2019-01-19T22:05:49.866Z,-5.30
2019-01-19T22:08:18.806Z,-5.40
2019-01-19T22:10:49.842Z,-5.30
2019-01-19T22:13:20.634Z,-5.40
2019-01-19T22:15:51.954Z,-5.40
2019-01-19T22:18:22.771Z,-5.40
2019-01-19T22:20:53.717Z,-5.40
2019-01-19T22:23:23.446Z,-5.40
2019-01-19T22:25:54.209Z,-5.40
2019-01-19T22:28:24.959Z,-5.30
2019-01-19T22:30:54.760Z,-5.40
2019-01-19T22:33:26.042Z,-5.40
2019-01-19T22:35:56.889Z,-5.40
2019-01-19T22:38:27.811Z,-5.40
2019-01-19T22:40:58.579Z,-5.40
2019-01-19T22:43:30.000Z,-5.40
2019-01-19T22:46:00.756Z,-5.50
2019-01-19T22:48:33.038Z,-5.50
2019-01-19T22:51:11.043Z,-5.50
2019-01-19T22:53:36.295Z,-5.50
2019-01-19T22:56:07.038Z,-5.60
2019-01-19T22:58:36.808Z,-5.70
2019-01-19T23:01:27.321Z,-5.60
2019-01-19T23:03:58.118Z,-5.60
2019-01-19T23:06:28.904Z,-5.60
2019-01-19T23:08:59.807Z,-5.70
2019-01-19T23:11:33.970Z,-5.70
2019-01-19T23:14:02.327Z,-5.80
2019-01-19T23:16:33.126Z,-5.80
2019-01-19T23:19:03.886Z,-5.80
2019-01-19T23:21:33.758Z,-5.80
2019-01-19T23:24:04.605Z,-5.90
2019-01-19T23:26:36.203Z,-5.90
2019-01-19T23:29:06.994Z,-5.90
2019-01-19T23:31:37.830Z,-6.00
2019-01-19T23:34:08.602Z,-6.00
2019-01-19T23:36:38.350Z,-5.90
2019-01-19T23:39:09.678Z,-5.90
2019-01-19T23:41:40.446Z,-5.90
2019-01-19T23:44:11.326Z,-5.90
2019-01-19T23:46:41.689Z,-5.90
2019-01-19T23:49:12.438Z,-5.90
2019-01-19T23:51:45.442Z,-5.90
2019-01-19T23:54:16.220Z,-6.00
2019-01-19T23:56:50.086Z,-6.00
2019-01-19T23:59:20.851Z,-5.90
